createdAt,value
2018-04-30T00:02:20.360Z,18.30
2018-04-30T00:04:47.932Z,15.83
2018-04-30T00:07:15.430Z,22.20
2018-04-30T00:09:42.919Z,19.13
2018-04-30T00:12:10.380Z,22.73
2018-04-30T00:14:37.839Z,20.00
2018-04-30T00:17:05.494Z,20.07
2018-04-30T00:19:33.098Z,16.43
2018-04-30T00:22:00.748Z,15.93
2018-04-30T00:24:28.223Z,15.27
2018-04-30T00:26:55.677Z,17.13
2018-04-30T00:29:23.205Z,17.23
2018-04-30T00:31:50.662Z,15.67
2018-04-30T00:34:18.205Z,14.80
2018-04-30T00:36:45.778Z,14.80
2018-04-30T00:39:13.287Z,15.87
2018-04-30T00:41:41.494Z,14.47
2018-04-30T00:44:09.068Z,13.67
2018-04-30T00:46:36.742Z,16.23
2018-04-30T00:49:04.226Z,13.03
2018-04-30T00:51:31.675Z,11.17
2018-04-30T00:53:59.128Z,14.33
2018-04-30T00:56:26.784Z,14.60
2018-04-30T00:58:54.421Z,14.67
2018-04-30T01:01:21.921Z,13.67
2018-04-30T01:03:49.548Z,11.70
2018-04-30T01:06:17.015Z,12.60
2018-04-30T01:08:45.315Z,10.23
2018-04-30T01:11:12.849Z,10.33
2018-04-30T01:13:41.066Z,11.07
2018-04-30T01:16:08.659Z,7.80
2018-04-30T01:18:36.118Z,8.47
2018-04-30T01:21:03.720Z,8.63
2018-04-30T01:23:31.940Z,8.47
2018-04-30T01:25:59.544Z,9.97
2018-04-30T01:28:27.181Z,10.87
2018-04-30T01:30:54.625Z,8.37
2018-04-30T01:33:22.109Z,8.97
2018-04-30T01:35:51.060Z,8.17
2018-04-30T01:38:18.651Z,10.67
2018-04-30T01:40:48.710Z,9.33
2018-04-30T01:43:17.040Z,8.40
2018-04-30T01:45:44.498Z,8.13
2018-04-30T01:48:11.929Z,5.97
2018-04-30T01:50:39.483Z,6.43
2018-04-30T01:53:07.094Z,6.60
2018-04-30T01:55:34.553Z,5.83
2018-04-30T01:58:02.003Z,7.33
2018-04-30T02:00:29.649Z,6.50
2018-04-30T02:02:57.167Z,6.47
2018-04-30T02:05:24.764Z,5.47
2018-04-30T02:07:52.272Z,5.90
2018-04-30T02:10:19.898Z,7.37
2018-04-30T02:12:47.401Z,5.20
2018-04-30T02:15:14.984Z,5.33
2018-04-30T02:17:42.659Z,6.43
2018-04-30T02:20:10.312Z,5.10
2018-04-30T02:22:37.842Z,4.50
2018-04-30T02:25:05.285Z,5.23
2018-04-30T02:27:32.766Z,5.63
2018-04-30T02:30:00.564Z,5.70
2018-04-30T02:32:28.490Z,5.77
2018-04-30T02:34:56.066Z,7.57
2018-04-30T02:37:23.523Z,6.47
2018-04-30T02:39:51.056Z,7.03
2018-04-30T02:42:18.553Z,6.73
2018-04-30T02:44:46.806Z,8.23
2018-04-30T02:47:14.266Z,9.80
2018-04-30T02:49:41.826Z,6.37
2018-04-30T02:52:09.375Z,7.00
2018-04-30T02:54:36.946Z,8.40
2018-04-30T02:57:04.385Z,7.77
2018-04-30T02:59:31.830Z,11.50
2018-04-30T03:01:59.309Z,7.43
2018-04-30T03:04:26.787Z,8.37
2018-04-30T03:06:55.751Z,9.67
2018-04-30T03:09:25.120Z,6.73
2018-04-30T03:11:52.567Z,7.83
2018-04-30T03:14:20.778Z,7.53
2018-04-30T03:16:48.367Z,7.10
2018-04-30T03:19:17.655Z,6.60
2018-04-30T03:21:45.211Z,7.63
2018-04-30T03:24:12.773Z,7.87
2018-04-30T03:26:40.244Z,7.17
2018-04-30T03:29:07.914Z,9.77
2018-04-30T03:31:36.152Z,10.37
2018-04-30T03:34:03.635Z,9.97
2018-04-30T03:36:31.092Z,10.57
2018-04-30T03:38:58.572Z,10.37
2018-04-30T03:41:26.193Z,9.20
2018-04-30T03:43:53.854Z,9.87
2018-04-30T03:46:21.389Z,13.50
2018-04-30T03:48:49.004Z,11.43
2018-04-30T03:51:16.530Z,12.13
2018-04-30T03:53:44.027Z,13.23
2018-04-30T03:56:12.375Z,11.67
2018-04-30T03:58:39.830Z,10.57
2018-04-30T04:01:19.127Z,12.17
2018-04-30T04:03:58.496Z,12.47
2018-04-30T04:06:39.345Z,14.30
2018-04-30T04:09:10.874Z,10.70
2018-04-30T04:11:38.479Z,13.13
2018-04-30T04:14:06.149Z,12.47
2018-04-30T04:16:33.597Z,12.00
2018-04-30T04:19:01.064Z,14.63
2018-04-30T04:21:29.360Z,14.90
2018-04-30T04:23:57.040Z,14.30
2018-04-30T04:26:25.414Z,12.48
2018-04-30T04:28:52.936Z,14.13
2018-04-30T04:31:22.851Z,12.70
2018-04-30T04:33:50.311Z,15.00
2018-04-30T04:36:21.202Z,13.30
2018-04-30T04:38:53.672Z,11.80
2018-04-30T04:41:22.903Z,14.30
2018-04-30T04:43:50.632Z,14.50
2018-04-30T04:46:18.234Z,15.03
2018-04-30T04:48:45.880Z,16.53
2018-04-30T04:51:13.361Z,13.00
2018-04-30T04:53:41.013Z,15.83
2018-04-30T04:56:13.037Z,17.20
2018-04-30T04:58:42.538Z,16.83
2018-04-30T05:01:10.137Z,15.07
2018-04-30T05:03:39.086Z,14.77
2018-04-30T05:06:07.798Z,14.57
2018-04-30T05:08:35.266Z,18.47
2018-04-30T05:11:02.833Z,17.23
2018-04-30T05:13:33.113Z,16.07
2018-04-30T05:16:00.683Z,15.50
2018-04-30T05:18:28.894Z,16.80
2018-04-30T05:20:56.430Z,15.63
2018-04-30T05:23:23.912Z,15.87
2018-04-30T05:25:52.248Z,15.40
2018-04-30T05:28:19.708Z,18.27
2018-04-30T05:30:47.259Z,21.90
2018-04-30T05:33:14.716Z,18.53
2018-04-30T05:35:42.291Z,17.20
2018-04-30T05:38:09.946Z,15.70
2018-04-30T05:40:37.409Z,19.53
2018-04-30T05:43:04.963Z,19.10
2018-04-30T05:45:32.419Z,16.37
2018-04-30T05:47:59.893Z,18.50
2018-04-30T05:50:27.448Z,18.07
2018-04-30T05:52:54.986Z,20.83
2018-04-30T05:55:22.566Z,20.80
2018-04-30T05:57:52.925Z,20.27
2018-04-30T06:00:20.536Z,23.00
2018-04-30T06:02:48.062Z,19.17
2018-04-30T06:05:15.535Z,20.83
2018-04-30T06:07:45.026Z,24.43
2018-04-30T06:10:12.579Z,15.90
2018-04-30T06:12:41.356Z,22.60
2018-04-30T06:15:08.871Z,23.73
2018-04-30T06:17:36.458Z,19.07
2018-04-30T06:20:07.017Z,19.90
2018-04-30T06:22:35.616Z,21.23
2018-04-30T06:25:03.096Z,19.30
2018-04-30T06:27:30.649Z,20.50
2018-04-30T06:29:58.251Z,20.77
2018-04-30T06:32:25.874Z,20.50
2018-04-30T06:34:53.406Z,18.77
2018-04-30T06:37:21.035Z,19.70
2018-04-30T06:39:48.643Z,20.37
2018-04-30T06:42:17.257Z,20.97
2018-04-30T06:44:44.826Z,20.87
2018-04-30T06:47:12.289Z,19.17
2018-04-30T06:49:39.943Z,23.23
2018-04-30T06:52:08.236Z,24.80
2018-04-30T06:54:35.714Z,21.13
2018-04-30T06:57:03.307Z,20.90
2018-04-30T06:59:30.772Z,19.30
2018-04-30T07:01:59.141Z,21.20
2018-04-30T07:04:26.681Z,21.03
2018-04-30T07:06:54.170Z,21.23
2018-04-30T07:09:22.563Z,18.57
2018-04-30T07:11:50.812Z,18.47
2018-04-30T07:14:18.447Z,17.03
2018-04-30T07:16:45.911Z,19.40
2018-04-30T07:19:13.475Z,16.93
2018-04-30T07:21:41.153Z,18.37
2018-04-30T07:24:08.607Z,15.50
2018-04-30T07:26:36.263Z,17.10
2018-04-30T07:29:05.364Z,20.50
2018-04-30T07:31:32.897Z,15.77
2018-04-30T07:34:00.476Z,17.17
2018-04-30T07:36:29.575Z,18.80
2018-04-30T07:38:57.095Z,18.07
2018-04-30T07:41:24.575Z,18.33
2018-04-30T07:43:52.054Z,19.07
2018-04-30T07:46:20.399Z,18.90
2018-04-30T07:48:47.880Z,16.17
2018-04-30T07:51:16.200Z,16.10
2018-04-30T07:53:43.671Z,21.03
2018-04-30T07:56:11.144Z,18.20
2018-04-30T07:58:38.714Z,15.53
2018-04-30T08:01:07.083Z,20.17
2018-04-30T08:03:34.576Z,18.43
2018-04-30T08:06:02.874Z,18.37
2018-04-30T08:08:30.585Z,18.20
2018-04-30T08:10:58.126Z,18.17
2018-04-30T08:13:25.583Z,18.30
2018-04-30T08:15:53.060Z,18.63
2018-04-30T08:18:20.606Z,22.00
2018-04-30T08:20:48.142Z,17.27
2018-04-30T08:23:15.626Z,17.13
2018-04-30T08:25:43.070Z,21.27
2018-04-30T08:28:10.632Z,17.63
2018-04-30T08:30:38.109Z,20.80
2018-04-30T08:33:05.748Z,20.77
2018-04-30T08:35:34.184Z,27.13
2018-04-30T08:38:01.647Z,21.30
2018-04-30T08:40:29.134Z,27.80
2018-04-30T08:42:56.811Z,22.40
2018-04-30T08:45:24.265Z,19.07
2018-04-30T08:47:51.717Z,20.93
2018-04-30T08:50:20.212Z,21.63
2018-04-30T08:52:49.283Z,19.33
2018-04-30T08:55:18.226Z,23.73
2018-04-30T08:57:45.831Z,19.20
2018-04-30T09:00:14.211Z,21.40
2018-04-30T09:02:45.834Z,23.20
2018-04-30T09:05:13.377Z,24.80
2018-04-30T09:07:40.945Z,26.67
2018-04-30T09:10:08.661Z,24.23
2018-04-30T09:12:36.311Z,27.60
2018-04-30T09:15:03.929Z,22.37
2018-04-30T09:17:31.322Z,28.83
2018-04-30T09:19:58.827Z,21.57
2018-04-30T09:22:27.148Z,30.50
2018-04-30T09:24:54.819Z,22.90
2018-04-30T09:27:23.781Z,27.50
2018-04-30T09:29:53.075Z,24.77
2018-04-30T09:32:20.713Z,27.07
2018-04-30T09:34:49.374Z,27.33
2018-04-30T09:37:17.027Z,22.97
2018-04-30T09:39:44.686Z,21.67
2018-04-30T09:42:12.329Z,22.10
2018-04-30T09:44:39.809Z,24.50
2018-04-30T09:47:07.475Z,19.67
2018-04-30T09:49:35.168Z,21.57
2018-04-30T09:52:02.597Z,18.77
2018-04-30T09:54:30.065Z,16.97
2018-04-30T09:56:58.275Z,15.70
2018-04-30T09:59:25.738Z,13.93
2018-04-30T10:01:54.240Z,15.57
2018-04-30T10:04:22.256Z,16.27
2018-04-30T10:06:50.600Z,14.83
2018-04-30T10:09:18.247Z,17.17
2018-04-30T10:11:45.705Z,14.53
2018-04-30T10:14:13.352Z,14.60
2018-04-30T10:16:40.861Z,12.20
2018-04-30T10:19:08.490Z,13.17
2018-04-30T10:21:36.005Z,11.03
2018-04-30T10:24:03.460Z,10.67
2018-04-30T10:26:31.044Z,10.50
2018-04-30T10:28:59.611Z,10.17
2018-04-30T10:31:28.510Z,10.77
2018-04-30T10:33:56.073Z,8.90
2018-04-30T10:36:23.756Z,8.90
2018-04-30T10:38:51.269Z,9.50
2018-04-30T10:41:18.728Z,12.27
2018-04-30T10:43:46.323Z,8.33
2018-04-30T10:46:13.792Z,9.60
2018-04-30T10:48:41.439Z,8.60
2018-04-30T10:51:08.885Z,8.90
2018-04-30T10:53:36.427Z,12.33
2018-04-30T10:56:03.884Z,9.60
2018-04-30T10:58:31.465Z,8.00
2018-04-30T11:00:58.934Z,9.37
2018-04-30T11:03:28.733Z,10.70
2018-04-30T11:05:56.189Z,8.20
2018-04-30T11:08:23.698Z,7.90
2018-04-30T11:10:52.392Z,10.07
2018-04-30T11:13:20.558Z,7.90
2018-04-30T11:15:48.800Z,8.27
2018-04-30T11:18:16.372Z,10.73
2018-04-30T11:20:43.844Z,9.47
2018-04-30T11:23:11.428Z,7.53
2018-04-30T11:25:39.619Z,8.17
2018-04-30T11:28:07.148Z,7.50
2018-04-30T11:30:34.753Z,7.97
2018-04-30T11:33:02.221Z,8.07
2018-04-30T11:35:29.869Z,8.00
2018-04-30T11:37:57.315Z,7.50
2018-04-30T11:40:24.987Z,8.43
2018-04-30T11:42:52.648Z,7.30
2018-04-30T11:45:20.186Z,7.40
2018-04-30T11:47:47.659Z,8.20
2018-04-30T11:50:15.215Z,8.20
2018-04-30T11:52:42.746Z,8.37
2018-04-30T11:55:11.007Z,7.27
2018-04-30T11:57:39.780Z,7.90
2018-04-30T12:00:08.405Z,7.40
2018-04-30T12:02:36.607Z,6.50
2018-04-30T12:05:04.277Z,5.30
2018-04-30T12:07:31.900Z,6.87
2018-04-30T12:09:59.444Z,6.23
2018-04-30T12:12:29.834Z,5.80
2018-04-30T12:14:57.353Z,4.67
2018-04-30T12:17:24.871Z,4.23
2018-04-30T12:19:52.675Z,4.13
2018-04-30T12:22:24.137Z,4.90
2018-04-30T12:24:53.646Z,3.83
2018-04-30T12:27:22.025Z,4.10
2018-04-30T12:29:50.051Z,4.10
2018-04-30T12:32:19.187Z,4.53
2018-04-30T12:34:47.436Z,4.37
2018-04-30T12:37:15.154Z,4.70
2018-04-30T12:39:42.760Z,4.60
2018-04-30T12:42:10.258Z,4.00
2018-04-30T12:44:37.719Z,8.37
2018-04-30T12:47:05.170Z,5.73
2018-04-30T12:49:32.816Z,4.63
2018-04-30T12:52:00.328Z,4.00
2018-04-30T12:54:27.799Z,5.17
2018-04-30T12:56:55.288Z,3.93
2018-04-30T12:59:23.642Z,4.27
2018-04-30T13:01:51.296Z,4.43
2018-04-30T13:04:18.763Z,4.20
2018-04-30T13:06:46.307Z,5.40
2018-04-30T13:09:13.902Z,5.07
2018-04-30T13:11:41.415Z,4.67
2018-04-30T13:14:08.866Z,5.93
2018-04-30T13:16:36.307Z,5.40
2018-04-30T13:19:03.906Z,4.57
2018-04-30T13:21:31.562Z,4.70
2018-04-30T13:23:59.059Z,4.50
2018-04-30T13:26:26.696Z,5.03
2018-04-30T13:28:54.351Z,4.70
2018-04-30T13:31:21.812Z,5.93
2018-04-30T13:33:50.061Z,4.80
2018-04-30T13:36:18.316Z,5.50
2018-04-30T13:38:45.828Z,5.27
2018-04-30T13:41:13.450Z,5.10
2018-04-30T13:43:41.060Z,5.57
2018-04-30T13:46:08.582Z,5.00
2018-04-30T13:48:36.311Z,5.23
2018-04-30T13:51:06.190Z,4.80
2018-04-30T13:53:33.823Z,4.47
2018-04-30T13:56:02.128Z,3.97
2018-04-30T13:58:29.645Z,3.50
2018-04-30T14:00:57.307Z,5.53
2018-04-30T14:03:24.830Z,4.60
2018-04-30T14:05:52.393Z,3.43
2018-04-30T14:08:19.986Z,3.50
2018-04-30T14:10:47.510Z,1.53
2018-04-30T14:13:15.037Z,1.17
2018-04-30T14:15:43.274Z,1.07
2018-04-30T14:18:10.730Z,1.20
2018-04-30T14:20:43.129Z,0.90
2018-04-30T14:23:10.577Z,1.67
2018-04-30T14:25:38.399Z,0.70
2018-04-30T14:28:05.876Z,0.97
2018-04-30T14:30:33.391Z,0.50
2018-04-30T14:33:01.108Z,0.50
2018-04-30T14:35:30.058Z,0.67
2018-04-30T14:37:57.533Z,0.70
2018-04-30T14:40:25.124Z,1.90
2018-04-30T14:42:52.757Z,1.00
2018-04-30T14:45:20.438Z,2.23
2018-04-30T14:47:47.890Z,0.83
2018-04-30T14:50:17.132Z,1.57
2018-04-30T14:52:47.218Z,2.47
2018-04-30T14:55:14.767Z,3.07
2018-04-30T14:57:43.150Z,1.30
2018-04-30T15:00:16.290Z,1.10
2018-04-30T15:02:44.484Z,1.50
2018-04-30T15:05:12.817Z,1.60
2018-04-30T15:07:44.534Z,2.00
2018-04-30T15:10:13.801Z,1.77
2018-04-30T15:12:41.560Z,1.93
2018-04-30T15:15:09.712Z,3.10
2018-04-30T15:17:37.250Z,2.00
2018-04-30T15:20:04.711Z,1.83
2018-04-30T15:22:32.153Z,2.17
2018-04-30T15:24:59.681Z,2.93
2018-04-30T15:27:27.267Z,2.60
2018-04-30T15:29:54.730Z,3.10
2018-04-30T15:32:22.287Z,2.00
2018-04-30T15:34:49.832Z,2.87
2018-04-30T15:37:17.375Z,2.30
2018-04-30T15:39:44.901Z,2.20
2018-04-30T15:42:12.488Z,1.90
2018-04-30T15:44:39.925Z,3.73
2018-04-30T15:47:07.416Z,3.50
2018-04-30T15:49:35.909Z,2.00
2018-04-30T15:52:05.092Z,3.70
2018-04-30T15:54:32.802Z,2.33
2018-04-30T15:57:00.277Z,2.23
2018-04-30T15:59:27.819Z,2.70
2018-04-30T16:01:55.331Z,4.10
2018-04-30T16:04:22.968Z,2.10
2018-04-30T16:06:50.530Z,2.33
2018-04-30T16:09:18.296Z,3.13
2018-04-30T16:11:45.853Z,3.03
2018-04-30T16:14:13.568Z,2.93
2018-04-30T16:16:40.949Z,1.90
2018-04-30T16:19:08.691Z,2.07
2018-04-30T16:21:36.952Z,3.47
2018-04-30T16:24:05.285Z,0.87
2018-04-30T16:26:32.841Z,2.03
2018-04-30T16:29:00.406Z,1.00
2018-04-30T16:31:27.949Z,0.90
2018-04-30T16:33:55.422Z,0.87
2018-04-30T16:36:22.893Z,1.30
2018-04-30T16:38:51.339Z,0.70
2018-04-30T16:41:18.918Z,1.23
2018-04-30T16:43:46.599Z,4.80
2018-04-30T16:46:14.904Z,1.57
2018-04-30T16:48:42.525Z,2.70
2018-04-30T16:51:10.011Z,2.60
2018-04-30T16:53:38.352Z,2.60
2018-04-30T16:56:05.803Z,1.00
2018-04-30T16:58:33.327Z,0.60
2018-04-30T17:01:00.713Z,1.33
2018-04-30T17:03:28.556Z,0.50
2018-04-30T17:05:56.143Z,1.50
2018-04-30T17:08:23.695Z,0.63
2018-04-30T17:10:51.523Z,0.80
2018-04-30T17:13:20.434Z,0.80
2018-04-30T17:18:20.584Z,3.20
2018-04-30T17:20:48.168Z,1.23
2018-04-30T17:23:16.399Z,1.07
2018-04-30T17:25:43.876Z,3.73
2018-04-30T17:28:12.074Z,2.47
2018-04-30T17:30:40.253Z,1.33
2018-04-30T17:33:08.858Z,1.20
2018-04-30T17:35:36.348Z,9.60
2018-04-30T17:38:04.842Z,0.53
2018-04-30T17:40:36.886Z,0.60
2018-04-30T17:43:07.316Z,0.30
2018-04-30T17:45:34.776Z,0.57
2018-04-30T17:48:03.126Z,0.70
2018-04-30T17:50:30.646Z,0.40
2018-04-30T17:52:58.104Z,0.23
2018-04-30T17:55:25.757Z,0.50
2018-04-30T17:57:53.286Z,1.80
2018-04-30T18:00:21.066Z,0.40
2018-04-30T18:02:51.003Z,4.27
2018-04-30T18:05:19.369Z,0.83
2018-04-30T18:07:49.597Z,0.20
2018-04-30T18:10:17.256Z,1.53
2018-04-30T18:12:46.266Z,0.40
2018-04-30T18:15:15.499Z,0.23
2018-04-30T18:17:43.616Z,1.57
2018-04-30T18:20:12.750Z,0.47
2018-04-30T18:22:40.296Z,1.00
2018-04-30T18:25:09.657Z,0.53
2018-04-30T18:27:38.468Z,0.40
2018-04-30T18:30:10.479Z,1.10
2018-04-30T18:32:38.986Z,0.30
2018-04-30T18:35:06.549Z,0.27
2018-04-30T18:37:34.215Z,2.00
2018-04-30T18:40:02.264Z,1.10
2018-04-30T18:42:29.830Z,1.17
2018-04-30T18:44:58.446Z,1.07
2018-04-30T18:47:26.434Z,0.57
2018-04-30T18:49:54.034Z,2.67
2018-04-30T18:52:21.917Z,0.30
2018-04-30T18:54:53.082Z,0.33
2018-04-30T18:57:21.201Z,2.43
2018-04-30T18:59:49.795Z,1.13
2018-04-30T19:02:17.370Z,0.97
2018-04-30T19:04:44.828Z,0.40
2018-04-30T19:07:12.272Z,1.10
2018-04-30T19:09:39.717Z,0.20
2018-04-30T19:12:07.288Z,0.50
2018-04-30T19:14:34.736Z,0.10
2018-04-30T19:17:02.528Z,0.20
2018-04-30T19:19:30.942Z,0.30
2018-04-30T19:21:58.653Z,0.30
2018-04-30T19:24:26.141Z,0.20
2018-04-30T19:26:53.920Z,0.20
2018-04-30T19:29:22.464Z,0.47
2018-04-30T19:31:49.983Z,0.20
2018-04-30T19:34:17.454Z,0.60
2018-04-30T19:36:44.924Z,0.80
2018-04-30T19:39:12.517Z,0.20
2018-04-30T19:41:41.633Z,0.60
2018-04-30T19:44:09.267Z,2.93
2018-04-30T19:46:36.928Z,0.33
2018-04-30T19:49:04.595Z,1.00
2018-04-30T19:51:39.529Z,1.80
2018-04-30T19:54:19.029Z,0.30
2018-04-30T19:56:47.792Z,0.33
2018-04-30T19:59:16.588Z,0.17
2018-04-30T20:01:45.723Z,0.20
2018-04-30T20:04:21.807Z,0.60
2018-04-30T20:06:59.873Z,0.60
2018-04-30T20:09:27.728Z,0.23
2018-04-30T20:11:56.134Z,1.20
2018-04-30T20:14:27.353Z,1.30
2018-04-30T20:17:02.184Z,0.43
2018-04-30T20:19:29.760Z,0.43
2018-04-30T20:21:58.504Z,0.47
2018-04-30T20:24:31.496Z,0.37
2018-04-30T20:27:01.960Z,0.40
2018-04-30T20:29:38.247Z,0.73
2018-04-30T20:32:05.776Z,0.60
2018-04-30T20:34:33.235Z,0.40
2018-04-30T20:37:01.440Z,0.50
2018-04-30T20:39:28.993Z,0.60
2018-04-30T20:41:57.211Z,1.10
2018-04-30T20:44:25.302Z,0.70
2018-04-30T20:46:53.786Z,0.80
2018-04-30T20:49:29.585Z,0.93
2018-04-30T20:51:57.977Z,1.00
2018-04-30T20:54:29.916Z,1.03
2018-04-30T20:57:01.127Z,1.10
2018-04-30T20:59:31.715Z,1.30
2018-04-30T21:01:59.177Z,1.17
2018-04-30T21:04:26.612Z,1.77
2018-04-30T21:06:54.122Z,1.27
2018-04-30T21:09:21.858Z,1.50
2018-04-30T21:14:27.232Z,2.03
2018-04-30T21:16:54.803Z,2.23
2018-04-30T21:19:22.363Z,2.30
2018-04-30T21:21:51.451Z,2.60
2018-04-30T21:24:21.402Z,4.43
2018-04-30T21:26:49.400Z,4.23
2018-04-30T21:29:22.257Z,3.67
2018-04-30T21:31:49.752Z,3.80
2018-04-30T21:34:17.201Z,3.77
2018-04-30T21:36:44.682Z,3.50
2018-04-30T21:39:12.198Z,4.60
2018-04-30T21:41:39.713Z,4.10
2018-04-30T21:44:07.943Z,5.13
2018-04-30T21:46:35.443Z,4.70
2018-04-30T21:49:02.883Z,4.23
2018-04-30T21:51:30.370Z,4.50
2018-04-30T21:53:57.804Z,4.83
2018-04-30T21:56:25.254Z,5.40
2018-04-30T21:58:52.734Z,4.43
2018-04-30T22:01:20.259Z,5.10
2018-04-30T22:03:47.700Z,5.07
2018-04-30T22:06:16.115Z,5.53
2018-04-30T22:08:43.636Z,5.47
2018-04-30T22:11:11.220Z,5.50
2018-04-30T22:13:38.780Z,5.37
2018-04-30T22:16:06.232Z,5.70
2018-04-30T22:18:33.692Z,5.90
2018-04-30T22:21:01.153Z,5.57
2018-04-30T22:23:28.606Z,5.63
2018-04-30T22:25:56.167Z,6.20
2018-04-30T22:28:23.702Z,6.23
2018-04-30T22:30:51.356Z,6.20
2018-04-30T22:33:18.948Z,6.60
2018-04-30T22:35:46.465Z,6.40
2018-04-30T22:38:14.064Z,6.53
2018-04-30T22:40:42.320Z,5.70
2018-04-30T22:43:09.999Z,5.33
2018-04-30T22:45:38.970Z,4.77
2018-04-30T22:48:06.411Z,4.10
2018-04-30T22:50:33.952Z,5.27
2018-04-30T22:53:01.671Z,4.53
2018-04-30T22:55:29.164Z,3.57
2018-04-30T22:57:56.765Z,4.07
2018-04-30T23:00:24.967Z,3.70
2018-04-30T23:02:52.736Z,4.57
2018-04-30T23:05:20.183Z,6.65
2018-04-30T23:07:47.638Z,8.43
2018-04-30T23:10:15.101Z,8.57
2018-04-30T23:12:42.575Z,4.43
2018-04-30T23:15:10.790Z,3.87
2018-04-30T23:17:38.240Z,7.77
2018-04-30T23:20:07.712Z,6.57
2018-04-30T23:22:37.774Z,6.07
2018-04-30T23:25:05.217Z,5.77
2018-04-30T23:27:32.800Z,5.30
2018-04-30T23:30:00.238Z,8.30
2018-04-30T23:32:27.761Z,2.90
2018-04-30T23:34:56.098Z,5.63
2018-04-30T23:37:23.536Z,7.10
2018-04-30T23:39:51.101Z,8.20
2018-04-30T23:42:18.589Z,8.57
2018-04-30T23:44:46.049Z,9.67
2018-04-30T23:47:13.490Z,6.37
2018-04-30T23:49:41.138Z,9.03
2018-04-30T23:52:08.804Z,5.70
2018-04-30T23:54:37.370Z,9.87
2018-04-30T23:57:04.932Z,6.70
2018-04-30T23:59:32.465Z,6.10
